Time;durP1;ratioP1;P1;durP2;ratioP2;P2;SDS_P1;SDS_P2;PMS_P1;PMS_P2;Temp;Humidity;BMP_temperature;BMP_pressure;BME280_temperature;BME280_humidity;BME280_pressure;Samples;Min_cycle;Max_cycle;Signal;HPM_P1;HPM_P2
2022/07/29 00:02:25;;;;;;;;;;;26.80;71.50;;;;;;5058363;28;20427;-64
2022/07/29 00:04:53;;;;;;;;;;;26.80;71.70;;;;;;5048335;28;19929;-64
2022/07/29 00:07:20;;;;;;;;;;;26.80;71.70;;;;;;5043922;28;19936;-64
2022/07/29 00:09:47;;;;;;;;;;;26.80;71.70;;;;;;5046513;28;19935;-63
2022/07/29 00:12:19;;;;;;;;;;;26.80;71.60;;;;;;5053629;28;20196;-64
2022/07/29 00:14:54;;;;;;;;;;;26.80;71.70;;;;;;5050535;28;20468;-64
2022/07/29 00:17:21;;;;;;;;;;;26.80;71.70;;;;;;5051148;28;19928;-62
2022/07/29 00:19:48;;;;;;;;;;;26.80;71.70;;;;;;5049808;28;19936;-65
2022/07/29 00:22:16;;;;;;;;;;;26.80;71.80;;;;;;5037794;28;20331;-64
2022/07/29 00:24:43;;;;;;;;;;;26.80;71.70;;;;;;5041244;28;19936;-61
2022/07/29 00:27:10;;;;;;;;;;;26.80;72.00;;;;;;5046994;28;19936;-64
2022/07/29 00:29:37;;;;;;;;;;;26.80;72.20;;;;;;5056062;28;20114;-64
2022/07/29 00:32:04;;;;;;;;;;;26.80;72.50;;;;;;5040470;28;19925;-64
2022/07/29 00:37:17;;;;;;;;;;;26.80;73.10;;;;;;5044357;28;20333;-64
2022/07/29 00:39:44;;;;;;;;;;;26.80;73.30;;;;;;5039843;28;19929;-63
2022/07/29 00:42:11;;;;;;;;;;;26.80;73.50;;;;;;5044336;28;19933;-64
2022/07/29 00:44:39;;;;;;;;;;;26.80;73.70;;;;;;5054117;28;19939;-65
2022/07/29 00:47:06;;;;;;;;;;;26.70;74.40;;;;;;5043080;28;20412;-65
2022/07/29 00:49:34;;;;;;;;;;;26.80;74.30;;;;;;5039034;28;19925;-64
2022/07/29 00:52:02;;;;;;;;;;;26.80;73.90;;;;;;5043715;28;19929;-65
2022/07/29 00:54:30;;;;;;;;;;;26.70;73.90;;;;;;5046845;28;19928;-63
2022/07/29 00:57:00;;;;;;;;;;;26.70;73.80;;;;;;5045015;28;19935;-65
2022/07/29 00:59:27;;;;;;;;;;;26.80;74.30;;;;;;5042614;28;19933;-64
2022/07/29 01:02:04;;;;;;;;;;;26.70;74.30;;;;;;5040265;28;20297;-64
2022/07/29 01:04:31;;;;;;;;;;;26.70;74.10;;;;;;5049620;28;19924;-64
2022/07/29 01:07:00;;;;;;;;;;;26.70;73.90;;;;;;5041982;28;19928;-65
2022/07/29 01:09:28;;;;;;;;;;;26.70;74.20;;;;;;5048829;28;19933;-66
2022/07/29 01:12:12;;;;;;;;;;;26.70;73.90;;;;;;5057954;28;19936;-65
2022/07/29 01:14:40;;;;;;;;;;;26.70;73.80;;;;;;5059626;28;20026;-64
2022/07/29 01:17:11;;;;;;;;;;;26.70;73.60;;;;;;5045613;28;19925;-70
2022/07/29 01:19:47;;;;;;;;;;;26.70;73.50;;;;;;5048538;28;19936;-64
2022/07/29 01:22:25;;;;;;;;;;;26.70;73.60;;;;;;5045413;28;19936;-65
2022/07/29 01:24:52;;;;;;;;;;;26.70;73.60;;;;;;5043288;28;19933;-65
2022/07/29 01:27:25;;;;;;;;;;;26.70;73.90;;;;;;5052459;28;19929;-64
2022/07/29 01:29:55;;;;;;;;;;;26.70;74.30;;;;;;5049737;28;19933;-65
2022/07/29 01:32:33;;;;;;;;;;;26.70;74.30;;;;;;5047714;28;19924;-63
2022/07/29 01:35:14;;;;;;;;;;;26.70;74.80;;;;;;5060282;28;19928;-64
2022/07/29 01:37:46;;;;;;;;;;;26.70;75.70;;;;;;5044120;28;20325;-64
2022/07/29 01:40:19;;;;;;;;;;;26.70;75.70;;;;;;5046914;28;19929;-66
2022/07/29 01:42:51;;;;;;;;;;;26.70;75.70;;;;;;5053876;28;20420;-64
2022/07/29 01:45:21;;;;;;;;;;;26.70;75.90;;;;;;5047345;28;19929;-64
2022/07/29 01:47:58;;;;;;;;;;;26.70;75.90;;;;;;5057225;28;19940;-64
2022/07/29 01:50:34;;;;;;;;;;;26.70;76.20;;;;;;5043920;28;20262;-64
2022/07/29 01:53:06;;;;;;;;;;;26.70;76.40;;;;;;5045262;28;19947;-64
2022/07/29 01:55:35;;;;;;;;;;;26.70;76.50;;;;;;5040433;28;19944;-65
2022/07/29 01:58:04;;;;;;;;;;;26.70;77.00;;;;;;5039156;28;19929;-64
2022/07/29 02:00:32;;;;;;;;;;;26.70;77.10;;;;;;5047195;28;19935;-63
2022/07/29 02:03:05;;;;;;;;;;;26.70;77.20;;;;;;5039856;28;20254;-65
2022/07/29 02:05:33;;;;;;;;;;;26.70;77.30;;;;;;5046527;28;19928;-64
2022/07/29 02:08:01;;;;;;;;;;;26.70;77.50;;;;;;5043128;28;19941;-64
2022/07/29 02:10:29;;;;;;;;;;;26.70;77.50;;;;;;5042859;28;20165;-64
2022/07/29 02:12:57;;;;;;;;;;;26.70;77.60;;;;;;5045120;28;19928;-64
2022/07/29 02:15:26;;;;;;;;;;;26.70;78.10;;;;;;5050053;28;19932;-65
2022/07/29 02:17:58;;;;;;;;;;;26.70;78.00;;;;;;5066444;28;19932;-64
2022/07/29 02:20:26;;;;;;;;;;;26.70;78.00;;;;;;5054455;28;19943;-65
2022/07/29 02:22:54;;;;;;;;;;;26.70;78.10;;;;;;5056851;28;19939;-64
2022/07/29 02:25:23;;;;;;;;;;;26.70;78.20;;;;;;5050935;28;20020;-64
2022/07/29 02:27:51;;;;;;;;;;;26.70;78.30;;;;;;5040327;28;19929;-64
2022/07/29 02:30:19;;;;;;;;;;;26.70;78.30;;;;;;5053645;28;20320;-65
2022/07/29 02:32:46;;;;;;;;;;;26.70;78.30;;;;;;5048510;28;19924;-65
2022/07/29 02:35:15;;;;;;;;;;;26.70;78.40;;;;;;5046112;28;19936;-64
2022/07/29 02:37:43;;;;;;;;;;;26.70;78.50;;;;;;5056119;28;19925;-65
2022/07/29 02:40:12;;;;;;;;;;;26.70;78.60;;;;;;5045791;28;19936;-65
2022/07/29 02:42:41;;;;;;;;;;;26.70;78.50;;;;;;5054493;28;20292;-64
2022/07/29 02:45:09;;;;;;;;;;;26.70;78.30;;;;;;5043579;28;19933;-62
2022/07/29 02:47:39;;;;;;;;;;;26.70;78.20;;;;;;5050716;28;19924;-65
2022/07/29 02:50:08;;;;;;;;;;;26.70;78.10;;;;;;5038940;28;19935;-64
2022/07/29 02:52:39;;;;;;;;;;;26.60;77.90;;;;;;5047416;28;19930;-64
2022/07/29 02:55:10;;;;;;;;;;;26.70;78.10;;;;;;5051016;28;19925;-64
2022/07/29 02:57:48;;;;;;;;;;;26.70;78.10;;;;;;5048142;28;19955;-63
2022/07/29 03:00:23;;;;;;;;;;;26.60;78.00;;;;;;5043804;28;19932;-64
2022/07/29 03:02:53;;;;;;;;;;;26.60;77.90;;;;;;5048985;28;19929;-64
2022/07/29 03:05:20;;;;;;;;;;;26.60;78.00;;;;;;5043600;28;19929;-64
2022/07/29 03:08:08;;;;;;;;;;;26.60;78.00;;;;;;5051861;28;19928;-65
2022/07/29 03:10:36;;;;;;;;;;;26.60;78.00;;;;;;5047530;28;19928;-64
2022/07/29 03:13:04;;;;;;;;;;;26.60;77.90;;;;;;5049142;28;20408;-64
2022/07/29 03:15:32;;;;;;;;;;;26.60;77.90;;;;;;5039865;28;20308;-64
2022/07/29 03:17:59;;;;;;;;;;;26.60;78.00;;;;;;5038305;28;19929;-63
2022/07/29 03:20:26;;;;;;;;;;;26.60;78.00;;;;;;5043397;28;19928;-63
2022/07/29 03:22:53;;;;;;;;;;;26.60;77.70;;;;;;5037087;28;19933;-64
2022/07/29 03:25:21;;;;;;;;;;;26.60;77.90;;;;;;5046297;28;20293;-66
2022/07/29 03:27:48;;;;;;;;;;;26.60;78.00;;;;;;5039605;28;19951;-65
2022/07/29 03:30:15;;;;;;;;;;;26.60;77.80;;;;;;5039684;28;19929;-64
2022/07/29 03:32:48;;;;;;;;;;;26.60;77.70;;;;;;5042533;28;19928;-64
2022/07/29 03:35:19;;;;;;;;;;;26.60;77.70;;;;;;5058088;28;19933;-64
2022/07/29 03:37:46;;;;;;;;;;;26.60;77.60;;;;;;5047065;28;19924;-65
2022/07/29 03:40:19;;;;;;;;;;;26.50;77.40;;;;;;5053877;28;20339;-64
2022/07/29 03:42:46;;;;;;;;;;;26.50;77.90;;;;;;5048979;28;19955;-64
2022/07/29 03:45:15;;;;;;;;;;;26.50;77.80;;;;;;5056994;28;20328;-65
2022/07/29 03:47:45;;;;;;;;;;;26.50;78.20;;;;;;5052607;28;19971;-62
2022/07/29 03:50:19;;;;;;;;;;;26.50;77.90;;;;;;5032878;28;19933;-65
2022/07/29 03:52:47;;;;;;;;;;;26.50;77.70;;;;;;5044216;28;20415;-63
2022/07/29 03:55:15;;;;;;;;;;;26.50;77.60;;;;;;5052001;28;19930;-63
2022/07/29 03:57:44;;;;;;;;;;;26.50;77.60;;;;;;5041221;28;19925;-64
2022/07/29 04:00:11;;;;;;;;;;;26.50;77.50;;;;;;5046682;28;19928;-62
2022/07/29 04:02:39;;;;;;;;;;;26.50;77.50;;;;;;5051161;28;19928;-63
2022/07/29 04:05:11;;;;;;;;;;;26.50;77.60;;;;;;5046045;28;19928;-62
2022/07/29 04:07:39;;;;;;;;;;;26.50;77.50;;;;;;5050038;28;19928;-63
2022/07/29 04:10:07;;;;;;;;;;;26.50;77.40;;;;;;5049975;28;19956;-63
2022/07/29 04:12:34;;;;;;;;;;;26.50;77.40;;;;;;5056603;28;19935;-64
2022/07/29 04:15:05;;;;;;;;;;;26.50;77.60;;;;;;5054270;28;20410;-64
2022/07/29 04:17:32;;;;;;;;;;;26.50;77.40;;;;;;5038748;28;20487;-64
2022/07/29 04:19:59;;;;;;;;;;;26.50;77.60;;;;;;5044689;28;19929;-64
2022/07/29 04:22:26;;;;;;;;;;;26.50;77.40;;;;;;5047560;28;19940;-63
2022/07/29 04:24:53;;;;;;;;;;;26.50;77.40;;;;;;5050537;28;19936;-64
2022/07/29 04:27:20;;;;;;;;;;;26.50;77.40;;;;;;5052224;28;20311;-64
2022/07/29 04:29:47;;;;;;;;;;;26.50;77.40;;;;;;5047718;28;19928;-64
2022/07/29 04:32:23;;;;;;;;;;;26.50;77.40;;;;;;5039444;28;20662;-65
2022/07/29 04:34:51;;;;;;;;;;;26.50;77.50;;;;;;5039430;28;19928;-65
2022/07/29 04:37:18;;;;;;;;;;;26.50;77.50;;;;;;5041550;28;20012;-65
2022/07/29 04:39:45;;;;;;;;;;;26.50;77.50;;;;;;5049788;28;19936;-65
2022/07/29 04:42:12;;;;;;;;;;;26.50;77.30;;;;;;5043647;28;20376;-65
2022/07/29 04:44:39;;;;;;;;;;;26.50;77.50;;;;;;5046645;28;19932;-65
2022/07/29 04:47:09;;;;;;;;;;;26.50;77.50;;;;;;5057594;28;19931;-62
2022/07/29 04:49:39;;;;;;;;;;;26.50;77.80;;;;;;5043709;28;19947;-63
2022/07/29 04:52:06;;;;;;;;;;;26.50;78.00;;;;;;5047223;28;19965;-64
2022/07/29 04:54:33;;;;;;;;;;;26.50;78.00;;;;;;5047748;28;20418;-62
2022/07/29 04:57:00;;;;;;;;;;;26.40;77.80;;;;;;5055243;28;19928;-65
2022/07/29 04:59:28;;;;;;;;;;;26.50;77.90;;;;;;5049589;28;20395;-65
2022/07/29 05:01:55;;;;;;;;;;;26.50;77.70;;;;;;5046966;28;20513;-64
2022/07/29 05:04:22;;;;;;;;;;;26.50;77.80;;;;;;5052823;28;19936;-63
2022/07/29 05:06:49;;;;;;;;;;;26.50;77.80;;;;;;5043383;28;19951;-64
2022/07/29 05:09:17;;;;;;;;;;;26.50;77.80;;;;;;5049700;28;19929;-64
2022/07/29 05:11:44;;;;;;;;;;;26.50;77.80;;;;;;5047223;28;19939;-64
2022/07/29 05:14:11;;;;;;;;;;;26.50;77.80;;;;;;5047146;28;20519;-64
2022/07/29 05:16:41;;;;;;;;;;;26.50;77.70;;;;;;5046065;28;19936;-64
2022/07/29 05:19:09;;;;;;;;;;;26.50;77.60;;;;;;5045579;28;19933;-64
2022/07/29 05:21:40;;;;;;;;;;;26.50;77.60;;;;;;5050196;28;19936;-63
2022/07/29 05:24:07;;;;;;;;;;;26.50;77.60;;;;;;5052176;28;20400;-64
2022/07/29 05:26:34;;;;;;;;;;;26.50;77.60;;;;;;5046041;28;19948;-65
2022/07/29 05:29:02;;;;;;;;;;;26.50;77.60;;;;;;5049347;28;20404;-64
2022/07/29 05:31:29;;;;;;;;;;;26.50;77.60;;;;;;5058996;28;20296;-63
2022/07/29 05:33:56;;;;;;;;;;;26.60;77.80;;;;;;5058773;28;19935;-64
2022/07/29 05:36:23;;;;;;;;;;;26.60;77.70;;;;;;5048654;28;19928;-64
2022/07/29 05:38:51;;;;;;;;;;;26.50;77.50;;;;;;5052589;28;19944;-64
2022/07/29 05:41:19;;;;;;;;;;;26.50;77.50;;;;;;5052660;28;20348;-63
2022/07/29 05:43:46;;;;;;;;;;;26.50;77.40;;;;;;5051564;28;20342;-64
2022/07/29 05:46:13;;;;;;;;;;;26.50;77.40;;;;;;5046503;28;20462;-65
2022/07/29 05:48:41;;;;;;;;;;;26.50;77.30;;;;;;5045055;28;19928;-64
2022/07/29 05:51:08;;;;;;;;;;;26.50;77.40;;;;;;5042458;28;19929;-64
2022/07/29 05:53:35;;;;;;;;;;;26.50;77.40;;;;;;5043939;28;20028;-64
2022/07/29 05:56:03;;;;;;;;;;;26.50;77.40;;;;;;5049343;28;19929;-63
2022/07/29 05:58:30;;;;;;;;;;;26.50;77.30;;;;;;5051517;28;20308;-63
2022/07/29 06:01:00;;;;;;;;;;;26.50;77.30;;;;;;5045067;28;19925;-66
2022/07/29 06:03:28;;;;;;;;;;;26.50;78.00;;;;;;5049188;28;19939;-65
2022/07/29 06:05:55;;;;;;;;;;;26.50;78.00;;;;;;5047788;28;20401;-65
2022/07/29 06:08:22;;;;;;;;;;;26.50;77.90;;;;;;5040098;28;19944;-65
2022/07/29 06:10:49;;;;;;;;;;;26.50;77.90;;;;;;5051368;28;19936;-66
2022/07/29 06:13:16;;;;;;;;;;;26.50;77.70;;;;;;5045983;28;20315;-63
2022/07/29 06:15:44;;;;;;;;;;;26.50;77.80;;;;;;5039579;28;19983;-65
2022/07/29 06:18:13;;;;;;;;;;;26.50;77.80;;;;;;5058968;28;20338;-62
2022/07/29 06:20:40;;;;;;;;;;;26.50;78.00;;;;;;5046275;28;19929;-65
2022/07/29 06:23:07;;;;;;;;;;;26.50;77.80;;;;;;5026894;28;20277;-65
2022/07/29 06:25:36;;;;;;;;;;;26.40;77.60;;;;;;5048284;28;20442;-67
2022/07/29 06:28:03;;;;;;;;;;;26.40;77.50;;;;;;5053997;28;19932;-66
2022/07/29 06:30:30;;;;;;;;;;;26.30;77.90;;;;;;5063024;28;19929;-67
2022/07/29 06:32:58;;;;;;;;;;;26.30;77.10;;;;;;5065832;28;19931;-64
2022/07/29 06:35:25;;;;;;;;;;;26.30;76.90;;;;;;5062002;28;20327;-66
2022/07/29 06:38:07;;;;;;;;;;;26.20;77.00;;;;;;5058734;28;19936;-67
2022/07/29 06:41:02;;;;;;;;;;;26.30;77.10;;;;;;5055143;28;20192;-63
2022/07/29 06:43:33;;;;;;;;;;;26.30;76.90;;;;;;5051186;28;20318;-64
2022/07/29 06:46:01;;;;;;;;;;;26.30;77.00;;;;;;5049842;28;19935;-65
2022/07/29 06:48:28;;;;;;;;;;;26.30;77.00;;;;;;5048274;28;19952;-67
2022/07/29 06:50:56;;;;;;;;;;;26.30;76.90;;;;;;5045079;28;19940;-67
2022/07/29 06:53:24;;;;;;;;;;;26.30;76.80;;;;;;5050193;28;19935;-66
2022/07/29 06:55:51;;;;;;;;;;;26.30;76.80;;;;;;5054959;28;20312;-68
2022/07/29 06:58:20;;;;;;;;;;;26.30;76.80;;;;;;5052177;28;19935;-66
2022/07/29 07:00:55;;;;;;;;;;;26.30;76.30;;;;;;5045096;28;19931;-67
2022/07/29 07:03:22;;;;;;;;;;;26.20;76.40;;;;;;5042576;28;20274;-67
2022/07/29 07:05:50;;;;;;;;;;;26.30;76.50;;;;;;5049358;28;19928;-66
2022/07/29 07:08:17;;;;;;;;;;;26.30;77.90;;;;;;5046807;28;20348;-67
2022/07/29 07:10:44;;;;;;;;;;;26.30;81.80;;;;;;5042720;28;20391;-67
2022/07/29 07:13:11;;;;;;;;;;;26.30;81.70;;;;;;5059467;28;19928;-68
2022/07/29 07:15:39;;;;;;;;;;;26.30;79.20;;;;;;5054870;28;20400;-65
2022/07/29 07:18:07;;;;;;;;;;;26.30;80.30;;;;;;5053055;28;19935;-65
2022/07/29 07:20:35;;;;;;;;;;;26.40;80.40;;;;;;5048680;28;19928;-64
2022/07/29 07:23:02;;;;;;;;;;;26.30;80.20;;;;;;5077428;28;20423;-64
2022/07/29 07:25:30;;;;;;;;;;;26.40;80.00;;;;;;5065117;28;19935;-61
2022/07/29 07:27:57;;;;;;;;;;;26.30;80.00;;;;;;5043340;28;19948;-61
2022/07/29 07:30:24;;;;;;;;;;;26.30;79.90;;;;;;5055781;28;19925;-61
2022/07/29 07:32:52;;;;;;;;;;;26.30;79.00;;;;;;5037601;28;19936;-59
2022/07/29 07:35:19;;;;;;;;;;;26.30;79.00;;;;;;5048286;28;20356;-59
2022/07/29 07:37:47;;;;;;;;;;;26.30;78.70;;;;;;5049957;28;19959;-58
2022/07/29 07:40:14;;;;;;;;;;;26.30;79.00;;;;;;5043024;28;19933;-65
2022/07/29 07:42:45;;;;;;;;;;;26.40;77.50;;;;;;5043607;28;20411;-63
2022/07/29 07:45:12;;;;;;;;;;;26.40;78.30;;;;;;5041603;28;19936;-63
2022/07/29 07:47:42;;;;;;;;;;;26.40;79.00;;;;;;5040979;28;20277;-67
2022/07/29 07:50:10;;;;;;;;;;;26.40;79.10;;;;;;5051963;28;19924;-63
2022/07/29 07:52:52;;;;;;;;;;;26.40;77.80;;;;;;5038857;28;19939;-66
2022/07/29 07:55:19;;;;;;;;;;;26.40;78.00;;;;;;5068651;28;19924;-60
2022/07/29 07:57:47;;;;;;;;;;;26.40;78.00;;;;;;5043625;28;19939;-54
2022/07/29 08:00:15;;;;;;;;;;;26.40;77.90;;;;;;5047043;28;19929;-59
2022/07/29 08:02:42;;;;;;;;;;;26.40;77.60;;;;;;5041913;28;19932;-60
2022/07/29 08:05:11;;;;;;;;;;;26.40;77.20;;;;;;5043758;28;19929;-57
2022/07/29 08:07:39;;;;;;;;;;;26.40;76.70;;;;;;5044290;28;19959;-57
2022/07/29 08:10:06;;;;;;;;;;;26.30;76.00;;;;;;5049335;28;20483;-56
2022/07/29 08:12:33;;;;;;;;;;;26.30;75.40;;;;;;5040606;28;19929;-57
2022/07/29 08:15:00;;;;;;;;;;;26.30;74.60;;;;;;5041845;28;20415;-54
2022/07/29 08:17:28;;;;;;;;;;;26.30;74.90;;;;;;5040352;28;19956;-57
2022/07/29 08:19:55;;;;;;;;;;;26.40;74.30;;;;;;5036578;28;19984;-56
2022/07/29 08:22:22;;;;;;;;;;;26.40;74.40;;;;;;5046912;28;19935;-56
2022/07/29 08:24:53;;;;;;;;;;;26.40;74.40;;;;;;5043389;28;20300;-58
2022/07/29 08:27:21;;;;;;;;;;;26.50;74.60;;;;;;5044709;28;19928;-58
2022/07/29 08:30:09;;;;;;;;;;;26.50;74.70;;;;;;5047533;28;19944;-57
2022/07/29 08:32:37;;;;;;;;;;;26.50;74.80;;;;;;5050198;28;19928;-58
2022/07/29 08:35:22;;;;;;;;;;;26.50;74.90;;;;;;5051211;28;19925;-57
2022/07/29 08:37:50;;;;;;;;;;;26.50;75.00;;;;;;5043388;28;20385;-58
2022/07/29 08:40:17;;;;;;;;;;;26.50;75.10;;;;;;5051729;28;19940;-60
2022/07/29 08:42:44;;;;;;;;;;;26.50;75.20;;;;;;5047815;28;19935;-57
2022/07/29 08:45:12;;;;;;;;;;;26.50;75.30;;;;;;5046186;28;20392;-57
2022/07/29 08:47:39;;;;;;;;;;;26.50;75.40;;;;;;5053124;28;19931;-59
2022/07/29 08:50:07;;;;;;;;;;;26.50;75.50;;;;;;5047531;28;19926;-58
2022/07/29 08:52:35;;;;;;;;;;;26.50;75.60;;;;;;5034078;28;20253;-57
2022/07/29 08:55:04;;;;;;;;;;;26.50;75.70;;;;;;5040096;28;19929;-58
2022/07/29 08:57:32;;;;;;;;;;;26.50;75.70;;;;;;5062667;28;20543;-59
2022/07/29 09:00:00;;;;;;;;;;;26.50;75.80;;;;;;5048877;28;20444;-57
2022/07/29 09:02:38;;;;;;;;;;;26.50;75.80;;;;;;5045616;28;19924;-58
2022/07/29 09:05:06;;;;;;;;;;;26.60;75.90;;;;;;5048660;28;19929;-58
2022/07/29 09:07:35;;;;;;;;;;;26.60;75.90;;;;;;5047094;28;20230;-60
2022/07/29 09:10:03;;;;;;;;;;;26.60;76.00;;;;;;5047991;28;19933;-58
2022/07/29 09:12:31;;;;;;;;;;;26.60;76.00;;;;;;5051500;28;19929;-60
2022/07/29 09:15:04;;;;;;;;;;;26.60;76.00;;;;;;5049934;28;19929;-57
2022/07/29 09:17:44;;;;;;;;;;;26.60;76.10;;;;;;5043959;28;20395;-58
2022/07/29 09:20:13;;;;;;;;;;;26.60;76.20;;;;;;5049838;28;20327;-59
2022/07/29 09:22:40;;;;;;;;;;;26.60;76.20;;;;;;5048083;28;20323;-58
2022/07/29 09:25:08;;;;;;;;;;;26.60;76.20;;;;;;5037932;28;19933;-59
2022/07/29 09:27:35;;;;;;;;;;;26.60;76.30;;;;;;5058900;28;20533;-58
2022/07/29 09:30:07;;;;;;;;;;;26.60;76.40;;;;;;5049482;28;19936;-57
2022/07/29 09:32:53;;;;;;;;;;;26.60;76.40;;;;;;5043557;28;19924;-59
2022/07/29 09:35:21;;;;;;;;;;;26.60;76.40;;;;;;5059734;28;19929;-58
2022/07/29 09:37:48;;;;;;;;;;;26.60;76.40;;;;;;5053083;28;20415;-61
2022/07/29 09:40:17;;;;;;;;;;;26.60;76.50;;;;;;5054567;28;19928;-57
2022/07/29 09:42:44;;;;;;;;;;;26.70;76.60;;;;;;5058229;28;20403;-59
2022/07/29 09:45:11;;;;;;;;;;;26.70;76.60;;;;;;5054871;28;19929;-56
2022/07/29 09:47:44;;;;;;;;;;;26.60;76.50;;;;;;5055597;28;19932;-58
2022/07/29 09:50:12;;;;;;;;;;;26.70;76.70;;;;;;5050936;28;19936;-60
2022/07/29 09:52:47;;;;;;;;;;;26.70;76.70;;;;;;5054674;28;19932;-59
2022/07/29 09:55:14;;;;;;;;;;;26.70;76.80;;;;;;5046922;28;19952;-57
2022/07/29 09:57:44;;;;;;;;;;;26.70;76.80;;;;;;5051502;28;19928;-59
2022/07/29 10:00:14;;;;;;;;;;;26.70;76.80;;;;;;5051686;28;20324;-57
2022/07/29 10:02:45;;;;;;;;;;;26.60;76.70;;;;;;5047156;28;19928;-57
2022/07/29 10:05:20;;;;;;;;;;;26.70;76.80;;;;;;5042769;28;20686;-56
2022/07/29 10:07:49;;;;;;;;;;;26.70;76.80;;;;;;5054492;28;19935;-58
2022/07/29 10:10:24;;;;;;;;;;;26.70;76.70;;;;;;5055135;28;20003;-58
2022/07/29 10:13:02;;;;;;;;;;;26.70;76.80;;;;;;5046589;28;19929;-56
2022/07/29 10:15:38;;;;;;;;;;;26.60;76.70;;;;;;5035170;28;19929;-55
2022/07/29 10:18:05;;;;;;;;;;;26.70;76.70;;;;;;5047587;28;19928;-59
2022/07/29 10:20:32;;;;;;;;;;;26.70;76.70;;;;;;5063279;28;19929;-56
2022/07/29 10:22:59;;;;;;;;;;;26.70;76.70;;;;;;5058546;28;19928;-58
2022/07/29 10:25:27;;;;;;;;;;;26.70;76.80;;;;;;5056384;28;19936;-58
2022/07/29 10:27:54;;;;;;;;;;;26.70;76.70;;;;;;5068632;28;19935;-58
2022/07/29 10:30:23;;;;;;;;;;;26.70;76.70;;;;;;5052706;28;19925;-55
2022/07/29 10:32:50;;;;;;;;;;;26.70;76.70;;;;;;5053132;28;19929;-56
2022/07/29 10:35:38;;;;;;;;;;;26.70;76.80;;;;;;5051482;28;19986;-58
2022/07/29 10:38:24;;;;;;;;;;;26.70;76.80;;;;;;5052874;28;19928;-59
2022/07/29 10:43:47;;;;;;;;;;;26.70;76.90;;;;;;5049541;28;19933;-56
2022/07/29 10:46:18;;;;;;;;;;;26.70;76.90;;;;;;5040150;28;20336;-55
2022/07/29 10:49:04;;;;;;;;;;;26.70;76.90;;;;;;5056231;28;20353;-57
2022/07/29 10:51:54;;;;;;;;;;;26.70;76.90;;;;;;5051794;28;19929;-54
2022/07/29 10:57:14;;;;;;;;;;;26.70;76.90;;;;;;5052207;28;19935;-56
2022/07/29 10:59:45;;;;;;;;;;;26.70;76.90;;;;;;5046071;28;20319;-62
2022/07/29 11:02:31;;;;;;;;;;;26.70;76.90;;;;;;5055958;28;19932;-57
2022/07/29 11:05:13;;;;;;;;;;;26.70;76.90;;;;;;5052523;28;19925;-57
2022/07/29 11:08:00;;;;;;;;;;;26.80;76.90;;;;;;5042017;28;19929;-56
2022/07/29 11:10:28;;;;;;;;;;;26.70;76.90;;;;;;5051168;28;19933;-59
2022/07/29 11:12:58;;;;;;;;;;;26.80;76.90;;;;;;5046140;28;20308;-57
2022/07/29 11:15:25;;;;;;;;;;;26.80;76.90;;;;;;5054478;28;20156;-55
2022/07/29 11:17:57;;;;;;;;;;;26.80;76.90;;;;;;5051583;28;19925;-59
2022/07/29 11:20:45;;;;;;;;;;;26.80;77.00;;;;;;5050820;28;20502;-59
2022/07/29 11:23:24;;;;;;;;;;;26.80;77.00;;;;;;5048778;28;19929;-54
2022/07/29 11:26:09;;;;;;;;;;;26.80;77.00;;;;;;5047284;28;19940;-59
2022/07/29 11:28:42;;;;;;;;;;;26.80;77.10;;;;;;5051472;28;19928;-58
2022/07/29 11:31:10;;;;;;;;;;;26.80;77.10;;;;;;5043442;28;20315;-61
2022/07/29 11:33:39;;;;;;;;;;;26.80;77.10;;;;;;5051188;28;19935;-56
2022/07/29 11:36:23;;;;;;;;;;;26.80;77.10;;;;;;5052660;28;20283;-58
2022/07/29 11:39:14;;;;;;;;;;;26.80;77.10;;;;;;5051488;28;19925;-56
2022/07/29 11:41:44;;;;;;;;;;;26.80;77.10;;;;;;5045189;28;19929;-58
2022/07/29 11:44:12;;;;;;;;;;;26.80;77.10;;;;;;5048500;28;19925;-56
2022/07/29 11:46:50;;;;;;;;;;;26.80;77.10;;;;;;5049414;28;19929;-57
2022/07/29 11:49:20;;;;;;;;;;;26.80;77.20;;;;;;5059197;28;19939;-55
2022/07/29 11:52:02;;;;;;;;;;;26.80;77.10;;;;;;5049823;28;19928;-52
2022/07/29 11:54:34;;;;;;;;;;;26.80;77.10;;;;;;5046055;28;19932;-59
2022/07/29 11:57:21;;;;;;;;;;;26.80;77.10;;;;;;5049670;28;19929;-61
2022/07/29 12:00:04;;;;;;;;;;;26.80;77.10;;;;;;5043746;28;19944;-58
2022/07/29 12:02:41;;;;;;;;;;;26.80;77.10;;;;;;5044486;28;19929;-59
2022/07/29 12:05:10;;;;;;;;;;;26.80;77.10;;;;;;5043718;28;19936;-58
2022/07/29 12:07:38;;;;;;;;;;;26.80;77.10;;;;;;5054881;28;19947;-55
2022/07/29 12:10:13;;;;;;;;;;;26.80;77.10;;;;;;5043450;28;19967;-57
2022/07/29 12:12:51;;;;;;;;;;;26.80;77.10;;;;;;5053465;28;19925;-59
2022/07/29 12:15:20;;;;;;;;;;;26.90;77.10;;;;;;5039819;28;20288;-57
2022/07/29 12:17:48;;;;;;;;;;;26.90;77.10;;;;;;5051838;28;19928;-57
2022/07/29 12:20:42;;;;;;;;;;;26.80;77.00;;;;;;5053406;28;19928;-57
2022/07/29 12:23:12;;;;;;;;;;;26.80;77.00;;;;;;5054682;28;19932;-58
2022/07/29 12:25:40;;;;;;;;;;;26.90;77.10;;;;;;5051568;28;19929;-60
2022/07/29 12:28:10;;;;;;;;;;;26.90;77.10;;;;;;5062176;28;19924;-61
2022/07/29 12:30:41;;;;;;;;;;;26.90;77.10;;;;;;5048168;28;19935;-57
2022/07/29 12:33:12;;;;;;;;;;;26.90;77.10;;;;;;5044249;28;19936;-61
2022/07/29 12:35:39;;;;;;;;;;;26.90;77.10;;;;;;5042677;28;20282;-58
2022/07/29 12:38:08;;;;;;;;;;;26.90;77.00;;;;;;5051264;28;19925;-57
2022/07/29 12:40:36;;;;;;;;;;;26.90;77.00;;;;;;5036547;28;19951;-61
2022/07/29 12:43:13;;;;;;;;;;;26.90;77.00;;;;;;5060975;28;19936;-58
2022/07/29 12:45:43;;;;;;;;;;;26.90;77.00;;;;;;5050529;28;20003;-60
2022/07/29 12:48:10;;;;;;;;;;;26.90;77.00;;;;;;5044849;28;19929;-57
2022/07/29 12:50:52;;;;;;;;;;;26.90;77.00;;;;;;5039247;28;19924;-58
2022/07/29 12:53:19;;;;;;;;;;;26.90;77.00;;;;;;5053229;28;20402;-57
2022/07/29 12:55:54;;;;;;;;;;;26.90;77.00;;;;;;5049625;28;19929;-57
2022/07/29 12:58:37;;;;;;;;;;;26.90;77.10;;;;;;5054525;28;19936;-55
2022/07/29 13:01:12;;;;;;;;;;;26.90;77.10;;;;;;5052221;28;19947;-59
2022/07/29 13:03:45;;;;;;;;;;;26.90;77.00;;;;;;5042940;28;19928;-58
2022/07/29 13:06:31;;;;;;;;;;;27.00;77.10;;;;;;5044848;28;20304;-56
2022/07/29 13:09:04;;;;;;;;;;;27.00;77.00;;;;;;5043152;28;19929;-58
2022/07/29 13:11:33;;;;;;;;;;;27.00;77.00;;;;;;5060801;28;19979;-58
2022/07/29 13:14:01;;;;;;;;;;;27.00;76.90;;;;;;5051886;28;20297;-62
2022/07/29 13:16:33;;;;;;;;;;;27.00;77.00;;;;;;5039106;28;19928;-57
2022/07/29 13:19:03;;;;;;;;;;;27.00;77.00;;;;;;5061399;28;19933;-58
2022/07/29 13:21:31;;;;;;;;;;;27.00;77.00;;;;;;5042691;28;19932;-58
2022/07/29 13:23:58;;;;;;;;;;;27.00;77.50;;;;;;5054094;28;19935;-60
2022/07/29 13:26:25;;;;;;;;;;;27.10;77.20;;;;;;5048458;28;19932;-61
2022/07/29 13:28:52;;;;;;;;;;;27.00;77.10;;;;;;5054374;28;19951;-60
2022/07/29 13:31:19;;;;;;;;;;;27.00;77.10;;;;;;5059899;28;19925;-57
2022/07/29 13:33:47;;;;;;;;;;;27.00;77.10;;;;;;5058237;28;19936;-59
2022/07/29 13:36:14;;;;;;;;;;;27.00;77.20;;;;;;5047684;28;19929;-58
2022/07/29 13:38:41;;;;;;;;;;;27.00;77.20;;;;;;5060554;28;20252;-57
2022/07/29 13:41:09;;;;;;;;;;;27.00;77.10;;;;;;5061801;28;20333;-57
2022/07/29 13:43:36;;;;;;;;;;;27.00;77.20;;;;;;5047005;28;20140;-57
2022/07/29 13:46:04;;;;;;;;;;;27.00;77.20;;;;;;5049687;28;19928;-56
2022/07/29 13:48:31;;;;;;;;;;;27.00;77.20;;;;;;5061923;28;19928;-58
2022/07/29 13:50:58;;;;;;;;;;;27.00;77.20;;;;;;5047715;28;20301;-57
2022/07/29 13:53:25;;;;;;;;;;;27.00;77.20;;;;;;5045278;28;19936;-58
2022/07/29 13:55:53;;;;;;;;;;;27.00;77.30;;;;;;5052189;28;19943;-57
2022/07/29 13:58:20;;;;;;;;;;;27.00;77.20;;;;;;5051563;28;19932;-57
2022/07/29 14:00:47;;;;;;;;;;;27.00;77.20;;;;;;5047310;28;19929;-60
2022/07/29 14:03:15;;;;;;;;;;;27.00;77.10;;;;;;5056079;28;19929;-58
2022/07/29 14:05:42;;;;;;;;;;;27.10;77.20;;;;;;5049573;28;19925;-57
2022/07/29 14:08:09;;;;;;;;;;;27.10;77.20;;;;;;5051349;28;19929;-59
2022/07/29 14:10:36;;;;;;;;;;;27.10;77.20;;;;;;5045408;28;19928;-55
2022/07/29 14:13:04;;;;;;;;;;;27.00;77.10;;;;;;5057485;28;19928;-55
2022/07/29 14:15:31;;;;;;;;;;;27.10;77.20;;;;;;5051218;28;19936;-57
2022/07/29 14:17:58;;;;;;;;;;;27.10;77.30;;;;;;5048514;28;19952;-58
2022/07/29 14:20:25;;;;;;;;;;;27.00;77.30;;;;;;5057753;28;19947;-59
2022/07/29 14:22:52;;;;;;;;;;;27.00;77.30;;;;;;5047515;28;19929;-56
2022/07/29 14:25:20;;;;;;;;;;;27.00;77.30;;;;;;5051319;28;19936;-57
2022/07/29 14:27:52;;;;;;;;;;;27.00;77.30;;;;;;5052615;28;20401;-59
2022/07/29 14:30:20;;;;;;;;;;;27.00;77.30;;;;;;5051686;28;19929;-59
2022/07/29 14:32:47;;;;;;;;;;;27.00;77.30;;;;;;5048206;28;19936;-58
2022/07/29 14:35:14;;;;;;;;;;;27.00;77.30;;;;;;5043002;28;19928;-51
2022/07/29 14:37:42;;;;;;;;;;;27.00;77.30;;;;;;5041924;28;20316;-59
2022/07/29 14:40:09;;;;;;;;;;;27.00;77.30;;;;;;5042236;28;19928;-60
2022/07/29 14:42:37;;;;;;;;;;;27.00;77.50;;;;;;5044353;28;19929;-59